Time;durP1;ratioP1;P1;durP2;ratioP2;P2;SDS_P1;SDS_P2;PMS_P1;PMS_P2;Temp;Humidity;BMP_temperature;BMP_pressure;BME280_temperature;BME280_humidity;BME280_pressure;Samples;Min_cycle;Max_cycle;Signal;HPM_P1;HPM_P2
2023/09/24 00:00:16;;;;;;;13.60;9.90;;;;;;;20.14;63.28;100816.73;105260;1253;61346;-59
2023/09/24 00:02:43;;;;;;;16.00;9.50;;;;;;;20.10;63.43;100822.70;105289;1253;63841;-55
2023/09/24 00:05:13;;;;;;;12.40;9.00;;;;;;;20.10;63.55;100822.54;105464;1255;59604;-59
2023/09/24 00:07:40;;;;;;;11.60;8.40;;;;;;;20.12;63.80;100824.95;105475;1253;59638;-54
2023/09/24 00:10:08;;;;;;;13.90;9.00;;;;;;;20.15;63.85;100827.97;105190;1257;64064;-49
2023/09/24 00:12:36;;;;;;;14.70;9.10;;;;;;;20.19;63.82;100830.40;105480;1254;69670;-49
2023/09/24 00:15:04;;;;;;;13.40;8.70;;;;;;;20.20;63.57;100833.73;105255;1257;63775;-48
2023/09/24 00:17:32;;;;;;;12.60;9.40;;;;;;;20.22;63.44;100836.63;105905;1253;60727;-46
2023/09/24 00:20:00;;;;;;;11.80;9.80;;;;;;;20.21;63.34;100840.85;105369;1257;59490;-48
2023/09/24 00:22:28;;;;;;;11.00;7.80;;;;;;;20.20;63.36;100841.14;105209;1257;64089;-48
2023/09/24 00:24:58;;;;;;;13.70;7.30;;;;;;;20.22;63.16;100840.90;105191;1258;60298;-47
2023/09/24 00:27:25;;;;;;;9.30;6.60;;;;;;;20.25;63.32;100843.95;105725;1254;63794;-48
2023/09/24 00:29:53;;;;;;;8.30;6.90;;;;;;;20.27;63.41;100845.71;105227;1253;61929;-48
2023/09/24 00:32:21;;;;;;;11.10;7.50;;;;;;;20.26;63.47;100847.09;105286;1253;59586;-48
2023/09/24 00:34:48;;;;;;;12.00;7.80;;;;;;;20.23;63.54;100843.64;105385;1253;64029;-47
2023/09/24 00:37:16;;;;;;;10.50;7.20;;;;;;;20.21;63.55;100846.52;105316;1253;62025;-48
2023/09/24 00:39:44;;;;;;;10.80;7.20;;;;;;;20.19;63.47;100849.99;105163;1253;63832;-48
2023/09/24 00:42:13;;;;;;;11.20;6.70;;;;;;;20.19;63.63;100851.44;105349;1257;59625;-48
2023/09/24 00:44:41;;;;;;;9.30;6.80;;;;;;;20.21;63.55;100850.22;105543;1256;61242;-49
2023/09/24 00:47:09;;;;;;;10.50;7.50;;;;;;;20.22;63.65;100843.20;106209;1253;64477;-47
2023/09/24 00:49:37;;;;;;;9.60;7.40;;;;;;;20.19;63.50;100845.48;107257;1256;61392;-47
2023/09/24 00:52:05;;;;;;;11.90;8.20;;;;;;;20.11;63.61;100842.98;105586;1253;62489;-47
2023/09/24 00:54:32;;;;;;;13.90;8.80;;;;;;;20.03;63.66;100840.23;105363;1252;59721;-48
2023/09/24 00:57:00;;;;;;;11.10;8.80;;;;;;;19.95;63.79;100842.16;105214;1254;59671;-48
2023/09/24 00:59:28;;;;;;;12.50;8.20;;;;;;;19.91;63.81;100843.21;106467;1253;62831;-48
2023/09/24 01:01:57;;;;;;;10.60;8.40;;;;;;;19.90;63.84;100843.15;105884;1257;61671;-47
2023/09/24 01:04:25;;;;;;;13.20;8.80;;;;;;;19.88;63.97;100844.02;105904;1257;62441;-48
2023/09/24 01:06:54;;;;;;;10.70;8.70;;;;;;;19.89;64.09;100843.92;105149;1254;59841;-48
2023/09/24 01:09:21;;;;;;;13.60;8.70;;;;;;;19.92;64.05;100842.40;105301;1258;60181;-47
2023/09/24 01:11:52;;;;;;;11.80;8.40;;;;;;;19.92;64.20;100843.75;105210;1253;62943;-48
2023/09/24 01:14:21;;;;;;;11.10;8.00;;;;;;;19.91;63.93;100844.98;105222;1253;61871;-47
2023/09/24 01:16:49;;;;;;;9.70;7.50;;;;;;;19.87;63.79;100845.89;105366;1253;64986;-54
2023/09/24 01:19:17;;;;;;;11.50;8.20;;;;;;;19.83;64.04;100843.27;105198;1253;60472;-49
2023/09/24 01:21:44;;;;;;;14.40;8.60;;;;;;;19.80;64.26;100841.65;105314;1253;60452;-48
2023/09/24 01:24:12;;;;;;;10.40;8.00;;;;;;;19.77;64.36;100843.16;105277;1253;64952;-47
2023/09/24 01:26:40;;;;;;;15.40;9.50;;;;;;;19.74;64.36;100845.95;105250;1257;60541;-46
2023/09/24 01:29:11;;;;;;;16.70;9.70;;;;;;;19.71;64.47;100850.39;105040;1257;63890;-47
2023/09/24 01:31:39;;;;;;;11.40;8.20;;;;;;;19.65;64.36;100848.27;105334;1258;60570;-47
2023/09/24 01:34:09;;;;;;;11.10;8.10;;;;;;;19.67;64.29;100851.67;105289;1257;60441;-47
2023/09/24 01:36:38;;;;;;;10.90;7.70;;;;;;;19.70;64.24;100854.34;106319;1253;63777;-48
2023/09/24 01:39:05;;;;;;;10.20;8.20;;;;;;;19.70;64.31;100851.73;105216;1258;60754;-47
2023/09/24 01:41:33;;;;;;;9.60;7.50;;;;;;;19.64;64.35;100849.67;105286;1253;63792;-47
2023/09/24 01:44:02;;;;;;;12.10;9.10;;;;;;;19.61;64.41;100848.64;107272;1253;60372;-47
2023/09/24 01:46:29;;;;;;;13.00;8.90;;;;;;;19.61;64.57;100844.11;105611;1253;60559;-56
2023/09/24 01:48:59;;;;;;;10.80;8.20;;;;;;;19.62;64.75;100839.01;105214;1256;63643;-56
2023/09/24 01:51:27;;;;;;;11.60;8.30;;;;;;;19.65;64.51;100838.39;105396;1258;61567;-57
2023/09/24 01:53:54;;;;;;;9.30;8.10;;;;;;;19.70;64.41;100836.04;105217;1256;64218;-56
2023/09/24 01:56:23;;;;;;;13.00;8.60;;;;;;;19.75;64.27;100838.39;105218;1258;60611;-59
2023/09/24 01:58:51;;;;;;;10.80;8.90;;;;;;;19.77;64.30;100836.68;105268;1258;60344;-55
2023/09/24 02:01:19;;;;;;;11.50;8.00;;;;;;;19.79;64.29;100835.78;105365;1253;65804;-57
2023/09/24 02:03:47;;;;;;;13.00;9.50;;;;;;;19.78;64.04;100837.71;105345;1257;61516;-56
2023/09/24 02:06:15;;;;;;;10.50;8.00;;;;;;;19.71;64.03;100835.58;105320;1256;63745;-57
2023/09/24 02:08:43;;;;;;;10.00;8.10;;;;;;;19.66;64.08;100831.34;105234;1255;61012;-56
2023/09/24 02:11:13;;;;;;;12.90;8.30;;;;;;;19.65;64.11;100831.78;106301;1256;60495;-54
2023/09/24 02:13:42;;;;;;;12.60;9.10;;;;;;;19.68;63.96;100835.55;105408;1253;63761;-56
2023/09/24 02:16:11;;;;;;;13.50;10.60;;;;;;;19.69;64.07;100841.27;105282;1255;61456;-50
2023/09/24 02:18:39;;;;;;;12.60;9.90;;;;;;;19.70;64.04;100847.59;105604;1253;63738;-63
2023/09/24 02:21:13;;;;;;;14.10;9.20;;;;;;;19.68;64.01;100849.64;105297;1253;60537;-57
2023/09/24 02:23:42;;;;;;;12.00;9.30;;;;;;;19.63;63.92;100855.36;105384;1257;60367;-48
2023/09/24 02:26:13;;;;;;;14.90;9.90;;;;;;;19.61;63.91;100856.42;105680;1253;65572;-49
2023/09/24 02:28:41;;;;;;;11.80;8.60;;;;;;;19.60;64.09;100853.71;105619;1258;61372;-57
2023/09/24 02:31:15;;;;;;;11.60;9.40;;;;;;;19.57;64.27;100856.30;105266;1258;63752;-62
2023/09/24 02:33:42;;;;;;;14.60;9.90;;;;;;;19.51;64.46;100856.45;105199;1258;60483;-57
2023/09/24 02:36:11;;;;;;;13.40;9.80;;;;;;;19.44;64.85;100858.42;105221;1254;60557;-62
2023/09/24 02:38:38;;;;;;;14.90;10.20;;;;;;;19.38;65.09;100860.36;105274;1256;64907;-63
2023/09/24 02:41:06;;;;;;;12.80;10.00;;;;;;;19.32;65.34;100867.20;105287;1258;61473;-55
2023/09/24 02:43:34;;;;;;;14.00;9.20;;;;;;;19.31;65.44;100869.27;105172;1253;62466;-56
2023/09/24 02:46:05;;;;;;;13.80;8.60;;;;;;;19.31;65.36;100869.34;105170;1256;60427;-60
2023/09/24 02:48:35;;;;;;;10.90;9.00;;;;;;;19.31;65.36;100868.45;106352;1253;59727;-60
2023/09/24 02:51:08;;;;;;;11.50;9.10;;;;;;;19.30;65.29;100870.52;105720;1257;63685;-60
2023/09/24 02:53:36;;;;;;;11.90;9.60;;;;;;;19.26;65.10;100870.06;105527;1259;60517;-60
2023/09/24 02:56:04;;;;;;;11.00;8.80;;;;;;;19.20;65.39;100868.55;105803;1257;62695;-60
2023/09/24 02:58:32;;;;;;;14.00;9.90;;;;;;;19.16;65.35;100867.42;105546;1253;60442;-60
2023/09/24 03:00:59;;;;;;;12.50;9.60;;;;;;;19.14;65.36;100866.19;105325;1257;60365;-60
2023/09/24 03:03:28;;;;;;;12.80;8.80;;;;;;;19.16;65.36;100869.91;105734;1253;67453;-58
2023/09/24 03:05:56;;;;;;;10.40;9.30;;;;;;;19.18;65.33;100869.35;105962;1253;61313;-57
2023/09/24 03:08:24;;;;;;;11.50;8.70;;;;;;;19.16;65.38;100865.98;105377;1253;63690;-58
2023/09/24 03:10:52;;;;;;;12.80;9.60;;;;;;;19.14;65.50;100864.62;105280;1253;60556;-56
2023/09/24 03:13:21;;;;;;;15.40;10.20;;;;;;;19.14;65.48;100867.83;105069;1253;61457;-58
2023/09/24 03:15:49;;;;;;;12.00;9.80;;;;;;;19.14;65.43;100866.02;105321;1259;64891;-57
2023/09/24 03:18:16;;;;;;;11.10;9.50;;;;;;;19.18;65.31;100870.06;105260;1253;60511;-59
2023/09/24 03:20:44;;;;;;;11.60;8.70;;;;;;;19.23;64.97;100876.09;105057;1258;66575;-58
2023/09/24 03:23:12;;;;;;;16.40;10.40;;;;;;;19.25;64.92;100877.48;105394;1258;60617;-58
2023/09/24 03:25:40;;;;;;;12.50;9.90;;;;;;;19.23;64.84;100881.20;105477;1257;60517;-58
2023/09/24 03:28:08;;;;;;;11.50;8.70;;;;;;;19.20;64.78;100885.45;105241;1258;64974;-58
2023/09/24 03:30:36;;;;;;;12.60;8.70;;;;;;;19.17;64.73;100886.73;105266;1257;60547;-54
2023/09/24 03:33:04;;;;;;;9.80;7.90;;;;;;;19.14;64.84;100883.95;106325;1253;64276;-57
2023/09/24 03:35:33;;;;;;;10.20;7.80;;;;;;;19.18;64.77;100888.71;105578;1254;61567;-57
2023/09/24 03:38:00;;;;;;;13.50;7.80;;;;;;;19.29;64.32;100888.39;105734;1253;60544;-57
2023/09/24 03:40:28;;;;;;;16.60;7.80;;;;;;;19.40;63.84;100891.49;105286;1259;67755;-57
2023/09/24 03:42:57;;;;;;;11.00;9.00;;;;;;;19.41;63.74;100895.86;105853;1258;60092;-57
2023/09/24 03:45:24;;;;;;;12.90;7.60;;;;;;;19.35;63.66;100893.81;105182;1253;62686;-57
2023/09/24 03:47:55;;;;;;;12.20;8.30;;;;;;;19.28;63.78;100897.54;106605;1253;60486;-59
2023/09/24 03:50:23;;;;;;;15.80;8.60;;;;;;;19.24;63.77;100901.55;105755;1255;60509;-59
2023/09/24 03:52:51;;;;;;;10.80;8.10;;;;;;;19.26;63.90;100904.51;105346;1253;64928;-56
2023/09/24 03:55:19;;;;;;;11.60;8.40;;;;;;;19.31;63.62;100907.02;105994;1253;60486;-57
2023/09/24 03:57:48;;;;;;;11.70;9.20;;;;;;;19.18;64.12;100908.40;105220;1259;63686;-58
2023/09/24 04:00:18;;;;;;;12.30;9.10;;;;;;;19.19;63.99;100912.40;105145;1253;60378;-57
2023/09/24 04:02:48;;;;;;;10.70;8.50;;;;;;;19.34;63.55;100919.87;105144;1253;60557;-57
2023/09/24 04:05:19;;;;;;;10.90;8.50;;;;;;;19.36;63.53;100920.73;105124;1253;72200;-57
2023/09/24 04:07:49;;;;;;;10.00;8.20;;;;;;;19.28;63.59;100923.17;105201;1253;61368;-57
2023/09/24 04:10:21;;;;;;;10.40;7.90;;;;;;;19.14;63.91;100929.13;105275;1253;63716;-57
2023/09/24 04:12:52;;;;;;;8.00;6.20;;;;;;;19.15;64.10;100933.99;105129;1254;60688;-57
2023/09/24 04:15:21;;;;;;;10.40;7.40;;;;;;;19.16;64.27;100932.81;105188;1253;60734;-58
2023/09/24 04:17:50;;;;;;;9.90;6.80;;;;;;;19.18;64.37;100931.92;106155;1256;65428;-57
2023/09/24 04:20:20;;;;;;;10.00;7.50;;;;;;;19.18;64.41;100926.02;105193;1253;61412;-57
2023/09/24 04:22:51;;;;;;;11.50;7.20;;;;;;;19.18;64.49;100924.65;105198;1253;62599;-56
2023/09/24 04:25:24;;;;;;;9.90;7.40;;;;;;;19.16;64.45;100928.41;105074;1253;60703;-57
2023/09/24 04:27:51;;;;;;;12.50;9.40;;;;;;;19.18;64.61;100934.78;106886;1253;60442;-55
2023/09/24 04:30:20;;;;;;;10.70;7.90;;;;;;;19.22;64.58;100947.31;105316;1253;63617;-56
2023/09/24 04:32:53;;;;;;;13.20;9.20;;;;;;;19.25;64.73;100946.42;105360;1257;61328;-56
2023/09/24 04:35:21;;;;;;;11.90;9.10;;;;;;;19.28;64.49;100943.25;105894;1254;63713;-57
2023/09/24 04:37:50;;;;;;;12.20;9.80;;;;;;;19.27;64.61;100940.54;105955;1255;60537;-57
2023/09/24 04:40:18;;;;;;;14.60;11.10;;;;;;;19.24;64.67;100945.29;105242;1254;60334;-56
2023/09/24 04:42:46;;;;;;;11.70;10.10;;;;;;;19.24;64.77;100945.72;105210;1253;64968;-57
2023/09/24 04:45:14;;;;;;;11.30;8.80;;;;;;;19.30;64.92;100949.30;105292;1253;61454;-56
2023/09/24 04:47:42;;;;;;;10.00;8.60;;;;;;;19.38;64.90;100957.17;105594;1254;63736;-58
2023/09/24 04:50:13;;;;;;;13.00;9.90;;;;;;;19.45;64.98;100958.36;105569;1254;60585;-56
2023/09/24 04:52:47;;;;;;;11.50;10.30;;;;;;;19.51;64.78;100964.00;105474;1253;60561;-55
2023/09/24 04:55:14;;;;;;;13.20;10.60;;;;;;;19.50;64.87;100962.59;105422;1258;64924;-55
2023/09/24 04:57:45;;;;;;;13.70;10.60;;;;;;;19.50;64.75;100964.27;105195;1253;61464;-50
2023/09/24 05:00:15;;;;;;;15.10;10.50;;;;;;;19.48;64.91;100971.75;105322;1253;64327;-58
2023/09/24 05:02:44;;;;;;;14.70;10.00;;;;;;;19.54;65.24;100970.52;105327;1253;60442;-51
2023/09/24 05:05:11;;;;;;;12.80;10.00;;;;;;;19.64;65.35;100973.54;105318;1253;60454;-49
2023/09/24 05:07:40;;;;;;;14.80;10.20;;;;;;;19.74;65.38;100982.09;105337;1253;64941;-50
2023/09/24 05:10:08;;;;;;;18.90;11.50;;;;;;;19.84;65.24;100989.41;105312;1258;62337;-51
2023/09/24 05:12:36;;;;;;;15.40;11.20;;;;;;;19.93;65.14;100998.77;105522;1257;63698;-50
2023/09/24 05:15:04;;;;;;;15.50;11.20;;;;;;;19.98;64.95;101008.28;105402;1254;60662;-51
2023/09/24 05:17:33;;;;;;;15.50;11.10;;;;;;;20.03;64.85;101011.48;105819;1253;60584;-56
2023/09/24 05:20:03;;;;;;;16.00;10.70;;;;;;;20.07;64.59;101009.34;105012;1253;64988;-55
2023/09/24 05:22:30;;;;;;;14.00;11.20;;;;;;;20.14;64.51;101012.12;105792;1253;63508;-54
2023/09/24 05:24:58;;;;;;;19.60;12.30;;;;;;;20.23;64.30;101014.98;105298;1255;64967;-56
2023/09/24 05:27:33;;;;;;;16.00;11.50;;;;;;;20.34;63.87;101020.92;105091;1253;60509;-52
2023/09/24 05:30:02;;;;;;;15.90;12.10;;;;;;;20.37;63.87;101021.45;105724;1253;60312;-53
2023/09/24 05:32:30;;;;;;;18.30;12.10;;;;;;;20.43;63.68;101018.86;105024;1253;64868;-53
2023/09/24 05:34:59;;;;;;;15.00;11.90;;;;;;;20.47;63.66;101019.24;105735;1259;60424;-53
2023/09/24 05:37:26;;;;;;;14.60;11.90;;;;;;;20.53;63.54;101013.20;105831;1258;62434;-48
2023/09/24 05:39:54;;;;;;;16.90;11.20;;;;;;;20.62;63.37;101011.56;105312;1253;60562;-48
2023/09/24 05:42:21;;;;;;;14.90;11.30;;;;;;;20.72;63.01;101013.67;105312;1253;60558;-48
2023/09/24 05:44:49;;;;;;;15.00;11.50;;;;;;;20.81;62.74;101014.73;105209;1253;65107;-50
2023/09/24 05:47:17;;;;;;;15.60;12.20;;;;;;;20.90;62.46;101016.39;105260;1257;68134;-50
2023/09/24 05:49:44;;;;;;;19.60;12.40;;;;;;;20.97;62.40;101020.10;105191;1254;63777;-49
2023/09/24 05:52:12;;;;;;;16.10;12.30;;;;;;;21.03;62.05;101020.13;105182;1259;60516;-49
2023/09/24 05:54:41;;;;;;;16.80;11.10;;;;;;;21.08;61.96;101019.06;105544;1255;60776;-48
2023/09/24 05:57:09;;;;;;;13.80;11.60;;;;;;;21.16;61.83;101020.76;105545;1253;63597;-48
2023/09/24 05:59:37;;;;;;;19.40;11.90;;;;;;;21.25;61.51;101019.05;105312;1257;65051;-49
2023/09/24 06:02:04;;;;;;;20.50;11.50;;;;;;;21.33;61.26;101017.39;105113;1253;63798;-50
2023/09/24 06:04:32;;;;;;;15.60;12.00;;;;;;;21.38;61.05;101016.83;107160;1253;60422;-51
2023/09/24 06:07:00;;;;;;;17.20;11.60;;;;;;;21.41;61.07;101020.55;105156;1257;59867;-49
2023/09/24 06:09:31;;;;;;;16.70;11.80;;;;;;;21.43;61.00;101014.75;105239;1253;73894;-50
2023/09/24 06:11:59;;;;;;;16.20;12.00;;;;;;;21.45;60.67;101011.49;105696;1258;62342;-53
2023/09/24 06:14:27;;;;;;;22.00;11.30;;;;;;;21.48;60.34;101013.57;105141;1260;70674;-46
2023/09/24 06:16:54;;;;;;;15.30;11.10;;;;;;;21.52;60.09;101014.27;109225;1253;58368;-47
2023/09/24 06:19:22;;;;;;;13.90;10.40;;;;;;;21.59;59.67;101015.63;109254;1253;58125;-46
2023/09/24 06:21:53;;;;;;;17.60;11.50;;;;;;;21.67;59.69;101018.14;107517;1253;63870;-46
2023/09/24 06:24:22;;;;;;;15.80;11.40;;;;;;;21.73;59.78;101016.52;105111;1259;60434;-45
2023/09/24 06:26:49;;;;;;;16.40;10.80;;;;;;;21.79;59.58;101017.23;106058;1253;63822;-46
2023/09/24 06:29:17;;;;;;;16.10;11.40;;;;;;;21.86;59.24;101016.63;105156;1253;60650;-47
2023/09/24 06:31:47;;;;;;;12.90;10.00;;;;;;;21.92;59.07;101012.52;105297;1258;60525;-46
2023/09/24 06:34:15;;;;;;;20.00;11.20;;;;;;;22.00;58.48;101015.86;105410;1254;64951;-46
2023/09/24 06:36:42;;;;;;;16.70;10.30;;;;;;;22.06;57.91;101017.41;105179;1253;62171;-45
2023/09/24 06:39:13;;;;;;;16.70;12.00;;;;;;;22.09;57.23;101016.17;105169;1259;64330;-45
2023/09/24 06:41:42;;;;;;;20.70;11.70;;;;;;;22.12;56.93;101018.19;105361;1253;60561;-45
2023/09/24 06:44:11;;;;;;;17.70;11.70;;;;;;;22.16;57.14;101018.34;108797;1253;59382;-45
2023/09/24 06:46:38;;;;;;;13.60;10.60;;;;;;;22.19;57.24;101019.95;105572;1254;64900;-44
2023/09/24 06:49:06;;;;;;;14.70;11.50;;;;;;;22.24;57.18;101018.70;105234;1253;62163;-47
2023/09/24 06:51:33;;;;;;;20.10;11.30;;;;;;;22.29;57.38;101018.45;105275;1257;62503;-45
2023/09/24 06:54:01;;;;;;;16.40;10.80;;;;;;;22.38;56.89;101017.52;105239;1255;60546;-48
2023/09/24 06:56:28;;;;;;;15.80;10.70;;;;;;;22.48;56.64;101015.09;105754;1254;60480;-47
2023/09/24 06:58:56;;;;;;;20.10;11.40;;;;;;;22.55;56.60;101018.00;105261;1253;64903;-47
2023/09/24 07:01:23;;;;;;;18.40;11.20;;;;;;;22.61;56.35;101015.56;105107;1257;61395;-47
2023/09/24 07:03:51;;;;;;;14.60;11.30;;;;;;;22.67;56.00;101017.16;105044;1254;64173;-48
2023/09/24 07:06:21;;;;;;;16.00;11.00;;;;;;;22.71;55.16;101015.77;106123;1256;60553;-47
2023/09/24 07:08:50;;;;;;;16.70;11.70;;;;;;;22.73;55.14;101015.84;106049;1258;60511;-54
2023/09/24 07:11:24;;;;;;;17.80;11.70;;;;;;;22.76;54.93;101013.33;106198;1253;63716;-55
2023/09/24 07:13:52;;;;;;;18.20;9.50;;;;;;;22.78;54.41;101016.98;105943;1258;61358;-53
2023/09/24 07:16:23;;;;;;;16.70;11.00;;;;;;;22.81;54.29;101016.48;105272;1253;63749;-53
2023/09/24 07:18:51;;;;;;;16.70;11.10;;;;;;;22.84;54.12;101019.02;106086;1253;60479;-56
2023/09/24 07:21:20;;;;;;;13.90;11.00;;;;;;;22.87;54.12;101019.13;106068;1258;60524;-55
2023/09/24 07:24:01;;;;;;;12.40;9.80;;;;;;;22.92;54.36;101014.86;105599;1258;64860;-54
2023/09/24 07:26:29;;;;;;;15.10;10.30;;;;;;;23.00;54.63;101017.52;105840;1258;60487;-53
2023/09/24 07:28:57;;;;;;;13.60;10.20;;;;;;;23.08;54.35;101017.63;105253;1253;62447;-54
2023/09/24 07:31:25;;;;;;;15.50;10.10;;;;;;;23.14;54.45;101021.54;105169;1253;60559;-54
2023/09/24 07:33:59;;;;;;;16.00;10.60;;;;;;;23.21;54.36;101027.05;105680;1258;60445;-55
2023/09/24 07:36:28;;;;;;;13.10;9.70;;;;;;;23.26;54.23;101032.11;108159;1255;63713;-53
2023/09/24 07:39:05;;;;;;;16.60;10.70;;;;;;;23.31;54.23;101035.27;105538;1257;61569;-55
2023/09/24 07:41:33;;;;;;;14.60;9.80;;;;;;;23.37;54.16;101037.72;105538;1254;63689;-55
2023/09/24 07:44:01;;;;;;;16.60;10.60;;;;;;;23.41;53.74;101039.04;105169;1253;60587;-55
2023/09/24 07:46:28;;;;;;;14.10;9.40;;;;;;;23.44;53.65;101039.92;105725;1257;60537;-56
2023/09/24 07:48:56;;;;;;;12.80;8.80;;;;;;;23.45;53.82;101037.23;105108;1253;63682;-56
2023/09/24 07:51:24;;;;;;;15.70;9.90;;;;;;;23.48;53.89;101023.41;105158;1256;60639;-54
2023/09/24 07:53:52;;;;;;;14.90;9.30;;;;;;;23.56;53.64;101015.13;105085;1258;63931;-54
2023/09/24 07:56:20;;;;;;;17.40;9.80;;;;;;;23.66;53.03;101009.47;105467;1254;60497;-55
2023/09/24 07:58:47;;;;;;;15.60;9.60;;;;;;;23.71;53.14;101011.45;105241;1257;60906;-55
2023/09/24 08:01:15;;;;;;;13.80;9.90;;;;;;;23.77;53.21;101009.31;109197;1258;64925;-55
2023/09/24 08:03:44;;;;;;;15.20;9.10;;;;;;;23.84;53.04;101007.98;105528;1253;61461;-55
2023/09/24 08:06:12;;;;;;;14.70;9.30;;;;;;;23.91;52.69;101009.15;105190;1254;64253;-52
2023/09/24 08:08:40;;;;;;;17.50;9.50;;;;;;;23.96;52.83;101006.71;105539;1257;60737;-54
2023/09/24 08:11:18;;;;;;;14.50;9.20;;;;;;;24.02;52.76;101006.01;105235;1253;60584;-54
2023/09/24 08:13:45;;;;;;;17.70;9.40;;;;;;;24.06;52.59;101009.38;105078;1258;64926;-55
2023/09/24 08:16:16;;;;;;;14.60;9.50;;;;;;;24.10;52.55;101010.48;105272;1260;61718;-54
2023/09/24 08:18:44;;;;;;;12.80;9.60;;;;;;;24.13;52.65;101012.25;105212;1258;63723;-54
2023/09/24 08:21:12;;;;;;;16.40;9.00;;;;;;;24.16;52.49;101013.27;105287;1255;60959;-54
2023/09/24 08:23:40;;;;;;;13.90;8.80;;;;;;;24.22;52.47;101010.02;104974;1256;60484;-55
2023/09/24 08:26:08;;;;;;;17.40;8.50;;;;;;;24.32;52.31;101005.28;105246;1257;64910;-54
2023/09/24 08:28:35;;;;;;;13.60;8.60;;;;;;;24.45;52.10;101001.67;104998;1256;61480;-52
2023/09/24 08:31:10;;;;;;;14.50;9.10;;;;;;;24.57;52.01;100995.87;105113;1260;70903;-55
2023/09/24 08:33:38;;;;;;;16.70;8.60;;;;;;;24.67;51.86;100995.60;105391;1254;61095;-54
2023/09/24 08:36:09;;;;;;;14.70;9.00;;;;;;;24.77;51.16;100993.27;105515;1258;60553;-54
2023/09/24 08:38:37;;;;;;;14.00;8.50;;;;;;;24.85;50.48;100991.59;105258;1255;73144;-54
2023/09/24 08:41:12;;;;;;;12.40;8.10;;;;;;;24.92;50.69;100991.77;104998;1254;61380;-54
2023/09/24 08:43:41;;;;;;;13.20;8.50;;;;;;;25.00;50.82;100994.06;104933;1254;64149;-53
2023/09/24 08:46:10;;;;;;;16.90;8.90;;;;;;;25.08;50.96;100997.58;105228;1259;60560;-54
2023/09/24 08:48:42;;;;;;;19.50;8.60;;;;;;;25.14;51.07;100997.34;105306;1259;60307;-56
2023/09/24 08:51:09;;;;;;;12.50;7.90;;;;;;;25.19;50.95;100995.60;104915;1256;63805;-51
2023/09/24 08:53:39;;;;;;;12.10;7.10;;;;;;;25.24;50.36;100995.48;105102;1259;61336;-54
2023/09/24 08:56:08;;;;;;;11.90;6.80;;;;;;;25.29;49.68;100995.20;105353;1256;64365;-54
2023/09/24 08:58:39;;;;;;;10.50;6.70;;;;;;;25.35;49.18;100996.53;105013;1254;60658;-55
2023/09/24 09:01:10;;;;;;;9.80;5.50;;;;;;;25.40;48.72;100995.91;105496;1259;60387;-51
2023/09/24 09:03:39;;;;;;;10.30;6.40;;;;;;;25.46;48.60;100999.44;105556;1254;63672;-51
2023/09/24 09:06:08;;;;;;;11.30;6.90;;;;;;;25.52;48.29;100997.11;105639;1257;61819;-53
2023/09/24 09:08:52;;;;;;;10.70;6.90;;;;;;;25.57;48.04;100991.65;105246;1254;63691;-54
2023/09/24 09:11:22;;;;;;;9.20;5.50;;;;;;;25.63;48.10;100993.48;105354;1257;60542;-54
2023/09/24 09:13:50;;;;;;;9.90;6.20;;;;;;;25.70;48.36;100997.65;105415;1254;60572;-54
2023/09/24 09:16:20;;;;;;;10.90;6.00;;;;;;;25.75;48.23;101001.48;105437;1264;64950;-54
2023/09/24 09:19:00;;;;;;;10.40;5.70;;;;;;;25.82;48.20;101002.50;105291;1259;60446;-54
2023/09/24 09:21:28;;;;;;;12.10;5.80;;;;;;;25.90;47.80;101003.04;105530;1260;318353;-54
2023/09/24 09:26:30;;;;;;;7.90;5.40;;;;;;;25.85;46.85;101002.96;102282;1291;601076;-54
2023/09/24 09:28:58;;;;;;;10.70;5.60;;;;;;;26.07;46.86;101001.20;105061;1267;59376;-55
2023/09/24 09:31:25;;;;;;;11.20;5.90;;;;;;;26.15;46.59;101005.01;104404;1267;59286;-54
2023/09/24 09:33:53;;;;;;;9.20;5.70;;;;;;;26.19;46.53;101007.53;104436;1267;63269;-54
2023/09/24 09:36:25;;;;;;;6.80;5.00;;;;;;;26.23;46.68;101007.24;104345;1267;61459;-52
2023/09/24 09:38:53;;;;;;;8.10;5.10;;;;;;;26.29;46.35;101005.27;105257;1266;62441;-55
2023/09/24 09:41:23;;;;;;;8.70;4.80;;;;;;;26.36;46.32;101006.83;105286;1263;59291;-57
2023/09/24 09:43:52;;;;;;;13.00;5.90;;;;;;;26.42;46.04;101007.09;104790;1267;59311;-54
2023/09/24 09:46:22;;;;;;;9.00;5.30;;;;;;;26.48;46.00;101001.88;105557;1264;62152;-53
2023/09/24 09:49:16;;;;;;;11.30;5.50;;;;;;;26.57;45.72;100998.52;107222;1267;62012;-53
2023/09/24 09:51:46;;;;;;;7.70;5.00;;;;;;;26.68;45.65;100997.92;105383;1264;63803;-54
2023/09/24 09:54:15;;;;;;;11.00;5.10;;;;;;;26.75;45.50;101000.17;104849;1264;59637;-53
2023/09/24 09:56:43;;;;;;;11.20;5.80;;;;;;;26.81;45.54;100999.69;104771;1264;59135;-54
2023/09/24 09:59:10;;;;;;;15.90;5.60;;;;;;;26.86;45.74;100996.59;105047;1254;64059;-53
2023/09/24 10:01:40;;;;;;;11.40;5.30;;;;;;;26.93;45.38;100998.92;104990;1254;61372;-53
2023/09/24 10:04:08;;;;;;;8.30;4.70;;;;;;;27.01;45.29;101003.61;105513;1257;63672;-57
2023/09/24 10:06:38;;;;;;;8.30;5.30;;;;;;;27.05;45.27;101004.38;106345;1256;59762;-53
2023/09/24 10:09:35;;;;;;;9.30;5.20;;;;;;;27.13;45.41;101003.84;105363;1255;61610;-64
2023/09/24 10:12:07;;;;;;;10.50;4.60;;;;;;;27.22;44.62;101001.82;105073;1260;64826;-51
2023/09/24 10:14:39;;;;;;;10.90;5.50;;;;;;;27.31;44.07;100999.54;105678;1260;60162;-53
2023/09/24 10:17:16;;;;;;;8.70;4.40;;;;;;;27.38;43.91;101001.98;105419;1257;63723;-53
2023/09/24 10:19:58;;;;;;;9.40;4.90;;;;;;;27.44;43.75;100999.37;105250;1254;59259;-54
2023/09/24 10:22:27;;;;;;;8.80;5.30;;;;;;;27.51;43.79;101001.35;105856;1260;59874;-55
2023/09/24 10:24:55;;;;;;;7.50;4.70;;;;;;;27.59;43.70;100999.87;105952;1254;62848;-55
2023/09/24 10:27:27;;;;;;;9.60;4.30;;;;;;;27.67;42.76;101002.92;106589;1254;61332;-54
2023/09/24 10:29:55;;;;;;;11.50;4.70;;;;;;;27.74;42.96;101003.70;105741;1260;62476;-55
2023/09/24 10:32:24;;;;;;;6.60;4.30;;;;;;;27.80;42.81;101003.89;105696;1256;59723;-50
2023/09/24 10:34:54;;;;;;;13.80;4.80;;;;;;;27.85;42.48;101004.17;105875;1254;59639;-55
2023/09/24 10:37:23;;;;;;;12.00;4.90;;;;;;;27.92;42.28;101002.25;105904;1260;64118;-52
2023/09/24 10:40:04;;;;;;;11.40;5.00;;;;;;;27.98;41.65;101003.61;105098;1260;60110;-54
2023/09/24 10:42:32;;;;;;;14.20;4.80;;;;;;;28.03;41.88;101004.98;105014;1256;63827;-55
2023/09/24 10:45:06;;;;;;;11.50;4.60;;;;;;;28.09;42.05;100999.00;105576;1257;59726;-54
2023/09/24 10:47:38;;;;;;;9.60;4.50;;;;;;;28.16;41.73;100997.77;105584;1256;59742;-57
2023/09/24 10:50:27;;;;;;;9.10;4.90;;;;;;;28.23;41.84;100993.91;105027;1257;63074;-56
2023/09/24 10:52:59;;;;;;;7.70;4.20;;;;;;;28.27;41.44;100992.70;105741;1256;62222;-56
2023/09/24 10:55:30;;;;;;;9.50;4.70;;;;;;;28.32;40.90;100995.38;106448;1257;63867;-53
2023/09/24 10:58:09;;;;;;;13.40;5.20;;;;;;;28.37;41.11;100993.09;105191;1254;59619;-52
2023/09/24 11:00:37;;;;;;;8.00;4.20;;;;;;;28.43;41.21;100991.59;105380;1257;59798;-53
2023/09/24 11:03:06;;;;;;;7.50;4.60;;;;;;;28.48;40.80;100987.13;105484;1259;64448;-52
2023/09/24 11:05:56;;;;;;;6.90;4.70;;;;;;;28.53;40.47;100988.23;105712;1254;61949;-55
2023/09/24 11:08:27;;;;;;;11.70;5.40;;;;;;;28.59;40.42;100990.11;105742;1254;63671;-58
2023/09/24 11:10:54;;;;;;;9.50;5.00;;;;;;;28.64;39.81;100993.40;105692;1257;59759;-53
2023/09/24 11:13:25;;;;;;;11.60;4.80;;;;;;;28.69;39.39;100994.84;105298;1260;59637;-54
2023/09/24 11:15:53;;;;;;;8.30;4.30;;;;;;;28.75;39.46;100993.57;105115;1254;64041;-54
2023/09/24 11:18:21;;;;;;;6.90;4.10;;;;;;;28.80;38.94;100992.40;106729;1254;61350;-54
2023/09/24 11:20:50;;;;;;;8.80;4.70;;;;;;;28.84;37.81;100989.89;105223;1260;63450;-53